Time;durP1;ratioP1;P1;durP2;ratioP2;P2;SDS_P1;SDS_P2;PMS_P1;PMS_P2;Temp;Humidity;BMP_temperature;BMP_pressure;BME280_temperature;BME280_humidity;BME280_pressure;Samples;Min_cycle;Max_cycle;Signal;HPM_P1;HPM_P2
2021/09/02 00:00:36;;;;;;;17.85;8.52;;;10.70;99.90;;;;;;4381947;28;656105;-76
2021/09/02 00:03:24;;;;;;;17.70;9.70;;;10.70;99.90;;;;;;4363434;28;657444;-76
2021/09/02 00:06:11;;;;;;;17.23;8.90;;;10.80;99.90;;;;;;4452509;28;656354;-76
2021/09/02 00:08:59;;;;;;;20.90;9.30;;;10.80;99.90;;;;;;4427361;28;658349;-76
2021/09/02 00:11:46;;;;;;;16.53;8.40;;;10.80;99.90;;;;;;4449974;28;657085;-76
2021/09/02 00:14:36;;;;;;;16.03;8.47;;;10.70;99.90;;;;;;4443333;28;657462;-74
2021/09/02 00:17:24;;;;;;;20.87;10.17;;;10.70;99.90;;;;;;4434444;28;656686;-76
2021/09/02 00:20:12;;;;;;;24.03;13.17;;;10.70;99.90;;;;;;4462529;28;658045;-76
2021/09/02 00:23:00;;;;;;;24.40;13.47;;;10.70;99.90;;;;;;4425924;28;658202;-75
2021/09/02 00:25:48;;;;;;;27.67;14.60;;;10.70;99.90;;;;;;4427040;28;657430;-75
2021/09/02 00:28:35;;;;;;;27.03;15.53;;;10.80;99.90;;;;;;4468093;28;658612;-75
2021/09/02 00:31:24;;;;;;;35.83;17.20;;;11.00;99.90;;;;;;4424471;28;657433;-75
2021/09/02 00:34:12;;;;;;;34.10;17.50;;;11.10;99.90;;;;;;4453322;28;657506;-75
2021/09/02 00:36:59;;;;;;;27.10;14.27;;;11.20;99.90;;;;;;4412087;28;658093;-76
2021/09/02 00:39:47;;;;;;;25.90;14.97;;;11.20;99.90;;;;;;4453552;28;657048;-76
2021/09/02 00:42:34;;;;;;;24.33;15.03;;;11.20;99.90;;;;;;4427286;28;658741;-76
2021/09/02 00:45:22;;;;;;;24.93;14.10;;;11.20;99.90;;;;;;4460881;28;657396;-76
2021/09/02 00:48:11;;;;;;;30.50;13.40;;;11.20;99.90;;;;;;4434883;28;657806;-75
2021/09/02 00:50:58;;;;;;;23.73;13.83;;;11.20;99.90;;;;;;4427400;28;657811;-74
2021/09/02 00:53:46;;;;;;;24.23;13.10;;;11.20;99.90;;;;;;4453706;28;657327;-75
2021/09/02 00:56:34;;;;;;;26.57;12.70;;;11.10;99.90;;;;;;4432970;28;657679;-75
2021/09/02 00:59:21;;;;;;;29.02;12.40;;;11.10;99.90;;;;;;4452164;28;657993;-75
2021/09/02 01:02:09;;;;;;;25.00;13.00;;;11.10;99.90;;;;;;4420464;28;658537;-75
2021/09/02 01:04:58;;;;;;;27.77;12.30;;;11.10;99.90;;;;;;4388237;28;657484;-75
2021/09/02 01:07:46;;;;;;;21.63;11.57;;;11.00;99.90;;;;;;4365745;28;659206;-75
2021/09/02 01:10:34;;;;;;;19.73;11.18;;;11.00;99.90;;;;;;4357488;28;657937;-75
2021/09/02 01:13:22;;;;;;;22.27;11.33;;;11.00;99.90;;;;;;4386254;28;657494;-75
2021/09/02 01:16:10;;;;;;;24.00;10.87;;;11.00;99.90;;;;;;4359960;28;657940;-75
2021/09/02 01:18:58;;;;;;;19.63;11.30;;;10.90;99.90;;;;;;4357658;28;657991;-74
2021/09/02 01:21:47;;;;;;;169.02;15.30;;;10.90;99.90;;;;;;4384387;28;658379;-75
2021/09/02 01:24:36;;;;;;;21.57;11.50;;;10.90;99.90;;;;;;4364151;28;658884;-75
2021/09/02 01:27:25;;;;;;;25.57;10.83;;;10.90;99.90;;;;;;4365948;28;657680;-75
2021/09/02 01:30:14;;;;;;;24.90;10.60;;;10.90;99.90;;;;;;4368697;28;657795;-74
2021/09/02 01:33:01;;;;;;;17.90;10.27;;;10.90;99.90;;;;;;4377364;28;657410;-74
2021/09/02 01:35:49;;;;;;;18.03;9.73;;;10.80;99.90;;;;;;4356086;28;658753;-75
2021/09/02 01:38:37;;;;;;;19.37;10.07;;;10.80;99.90;;;;;;4390894;28;656216;-76
2021/09/02 01:41:26;;;;;;;23.90;10.60;;;10.80;99.90;;;;;;4359787;28;658262;-76
2021/09/02 01:44:14;;;;;;;20.90;10.10;;;10.80;99.90;;;;;;4372588;28;658087;-75
2021/09/02 01:47:01;;;;;;;18.23;10.73;;;10.80;99.90;;;;;;4390520;28;657620;-74
2021/09/02 01:49:49;;;;;;;15.97;9.93;;;10.80;99.90;;;;;;4355946;28;658180;-75
2021/09/02 01:52:36;;;;;;;17.20;10.50;;;10.70;99.90;;;;;;4391140;28;656871;-75
2021/09/02 01:55:24;;;;;;;19.97;10.50;;;10.70;99.90;;;;;;4376064;28;658735;-74
2021/09/02 01:58:14;;;;;;;18.90;9.80;;;10.70;99.90;;;;;;4373567;28;657695;-74
2021/09/02 02:01:01;;;;;;;22.70;10.13;;;10.70;99.90;;;;;;4382919;28;656925;-75
2021/09/02 02:03:49;;;;;;;19.03;10.40;;;10.70;99.90;;;;;;4369415;28;659384;-75
2021/09/02 02:06:36;;;;;;;21.30;10.90;;;10.70;99.90;;;;;;4384565;28;657320;-75
2021/09/02 02:09:24;;;;;;;25.37;11.20;;;10.70;99.90;;;;;;4352792;28;657912;-75
2021/09/02 02:12:12;;;;;;;23.43;10.60;;;10.70;99.90;;;;;;4384641;28;657803;-75
2021/09/02 02:15:00;;;;;;;20.80;10.70;;;10.80;99.90;;;;;;4356338;28;659066;-74
2021/09/02 02:17:48;;;;;;;23.83;11.37;;;10.80;99.90;;;;;;4361750;28;657282;-75
2021/09/02 02:20:35;;;;;;;25.33;11.07;;;10.80;99.90;;;;;;4384521;28;657287;-76
2021/09/02 02:23:23;;;;;;;19.73;10.80;;;10.90;99.90;;;;;;4366485;28;657902;-74
2021/09/02 02:26:11;;;;;;;19.70;11.47;;;10.90;99.90;;;;;;4370242;28;657901;-75
2021/09/02 02:28:58;;;;;;;23.17;11.90;;;11.00;99.90;;;;;;4359978;28;657718;-75
2021/09/02 02:31:47;;;;;;;21.70;12.00;;;11.00;99.90;;;;;;4380231;28;658063;-75
2021/09/02 02:34:35;;;;;;;24.23;11.77;;;11.00;99.90;;;;;;4362070;28;658779;-75
2021/09/02 02:37:22;;;;;;;22.20;11.88;;;11.10;99.90;;;;;;4363795;28;657644;-74
2021/09/02 02:40:11;;;;;;;20.53;12.03;;;11.10;99.90;;;;;;4396847;28;658276;-74
2021/09/02 02:42:59;;;;;;;27.20;12.73;;;11.20;99.90;;;;;;4363924;28;657934;-75
2021/09/02 02:45:46;;;;;;;25.83;13.40;;;11.20;99.90;;;;;;4389371;28;657257;-75
2021/09/02 02:48:38;;;;;;;23.60;12.97;;;11.20;99.90;;;;;;4366599;28;658416;-75
2021/09/02 02:51:26;;;;;;;28.87;13.30;;;11.20;99.90;;;;;;4359259;28;658165;-75
2021/09/02 02:54:14;;;;;;;23.67;13.00;;;11.20;99.90;;;;;;4360035;28;657423;-75
2021/09/02 02:57:01;;;;;;;24.57;12.17;;;11.30;99.90;;;;;;4390661;28;657119;-75
2021/09/02 02:59:49;;;;;;;27.57;11.67;;;11.20;99.90;;;;;;4350469;28;658669;-75
2021/09/02 03:02:37;;;;;;;22.47;11.97;;;11.20;99.90;;;;;;4377536;28;657725;-75
2021/09/02 03:05:27;;;;;;;24.37;12.13;;;11.20;99.90;;;;;;4373952;28;658187;-75
2021/09/02 03:08:14;;;;;;;25.10;12.03;;;11.20;99.90;;;;;;4364045;28;658633;-75
2021/09/02 03:11:02;;;;;;;28.37;12.57;;;11.20;99.90;;;;;;4383807;28;657567;-74
2021/09/02 03:13:50;;;;;;;25.57;12.60;;;11.30;99.90;;;;;;4380661;28;659259;-75
2021/09/02 03:16:38;;;;;;;25.73;13.10;;;11.30;99.90;;;;;;4349972;28;657894;-74
2021/09/02 03:19:25;;;;;;;23.30;12.27;;;11.40;99.90;;;;;;4367649;28;658100;-76
2021/09/02 03:22:14;;;;;;;21.73;11.87;;;11.40;99.90;;;;;;4354073;28;657846;-75
2021/09/02 03:25:02;;;;;;;22.80;13.50;;;11.40;99.90;;;;;;4376211;28;658017;-75
2021/09/02 03:27:50;;;;;;;23.30;12.13;;;11.40;99.90;;;;;;4383324;28;657724;-75
2021/09/02 03:30:38;;;;;;;24.83;12.70;;;11.40;99.90;;;;;;4353275;28;657993;-75
2021/09/02 03:33:25;;;;;;;22.80;11.95;;;11.50;99.90;;;;;;4376335;28;658227;-75
2021/09/02 03:36:13;;;;;;;31.43;13.17;;;11.50;99.90;;;;;;4344702;28;658139;-74
2021/09/02 03:39:02;;;;;;;20.10;11.83;;;11.50;99.90;;;;;;4376286;28;658438;-76
2021/09/02 03:41:50;;;;;;;25.13;11.68;;;11.50;99.90;;;;;;4368722;28;657771;-75
2021/09/02 03:44:37;;;;;;;22.23;11.60;;;11.50;99.90;;;;;;4363373;28;657763;-74
2021/09/02 03:47:25;;;;;;;22.53;12.30;;;11.60;99.90;;;;;;4377055;28;657907;-73
2021/09/02 03:50:19;;;;;;;24.20;12.13;;;11.60;99.90;;;;;;4358110;28;657480;-72
2021/09/02 03:53:07;;;;;;;26.67;12.10;;;11.60;99.90;;;;;;4353912;28;657637;-73
2021/09/02 03:55:55;;;;;;;25.83;12.30;;;11.60;99.90;;;;;;4354155;28;658886;-73
2021/09/02 04:01:44;;;;;;;24.30;11.70;;;11.70;99.90;;;;;;4321846;28;658067;-73
2021/09/02 04:04:32;;;;;;;17.83;10.80;;;11.70;99.90;;;;;;4347140;28;657556;-72
2021/09/02 04:07:20;;;;;;;21.43;11.17;;;11.70;99.90;;;;;;4357907;28;658746;-73
2021/09/02 04:10:09;;;;;;;22.93;11.20;;;11.70;99.90;;;;;;4339266;28;657657;-72
2021/09/02 04:12:58;;;;;;;26.63;11.57;;;11.70;99.90;;;;;;4357148;28;657649;-73
2021/09/02 04:15:45;;;;;;;24.23;11.30;;;11.70;99.90;;;;;;4333893;28;658359;-73
2021/09/02 04:18:33;;;;;;;27.47;11.40;;;11.70;99.90;;;;;;4338655;28;657791;-73
2021/09/02 04:21:20;;;;;;;19.20;10.80;;;11.70;99.90;;;;;;4361695;28;659234;-73
2021/09/02 04:24:08;;;;;;;20.40;11.10;;;11.70;99.90;;;;;;4335203;28;657588;-73
2021/09/02 04:26:56;;;;;;;21.10;10.00;;;11.60;99.90;;;;;;4339884;28;658274;-73
2021/09/02 04:29:45;;;;;;;21.03;10.90;;;11.70;99.90;;;;;;4337393;28;657458;-73
2021/09/02 04:32:32;;;;;;;22.80;10.73;;;11.60;99.90;;;;;;4337992;28;657526;-72
2021/09/02 04:35:20;;;;;;;34.37;10.00;;;11.60;99.90;;;;;;4340245;28;659177;-72
2021/09/02 04:38:07;;;;;;;20.73;10.10;;;11.50;99.90;;;;;;4314877;28;657452;-73
2021/09/02 04:40:55;;;;;;;19.77;10.17;;;11.50;99.90;;;;;;4350697;28;658031;-73
2021/09/02 04:43:43;;;;;;;20.57;11.27;;;11.50;99.90;;;;;;4355456;28;657495;-73
2021/09/02 04:46:32;;;;;;;27.67;12.50;;;11.50;99.90;;;;;;4379334;28;657683;-73
2021/09/02 04:49:19;;;;;;;21.23;10.23;;;11.60;99.90;;;;;;4348238;28;658888;-73
2021/09/02 04:52:07;;;;;;;21.90;10.40;;;11.60;99.90;;;;;;4379469;28;657751;-73
2021/09/02 04:54:55;;;;;;;25.13;11.73;;;11.60;99.90;;;;;;4348105;28;659235;-73
2021/09/02 04:57:43;;;;;;;25.17;12.83;;;11.70;99.90;;;;;;4367087;28;657768;-73
2021/09/02 05:00:31;;;;;;;25.10;11.50;;;11.90;99.90;;;;;;4375931;28;657524;-73
2021/09/02 05:03:20;;;;;;;19.30;10.97;;;12.00;99.90;;;;;;4360815;28;658136;-73
2021/09/02 05:06:08;;;;;;;21.40;11.93;;;12.20;99.90;;;;;;4358495;28;657538;-73
2021/09/02 05:08:55;;;;;;;22.83;11.37;;;12.20;99.90;;;;;;4374004;28;657978;-73
2021/09/02 05:11:43;;;;;;;18.60;10.17;;;12.30;99.90;;;;;;4360168;28;657924;-73
2021/09/02 05:14:30;;;;;;;21.87;10.93;;;12.40;99.90;;;;;;4386270;28;658185;-73
2021/09/02 05:17:18;;;;;;;19.73;9.87;;;12.40;99.90;;;;;;4366951;28;657424;-73
2021/09/02 05:20:08;;;;;;;17.07;9.77;;;12.50;99.90;;;;;;4375219;28;658361;-73
2021/09/02 05:22:56;;;;;;;19.00;9.70;;;12.50;99.90;;;;;;4365064;28;656973;-73
2021/09/02 05:25:43;;;;;;;21.23;10.43;;;12.60;99.90;;;;;;4348592;28;657131;-73
2021/09/02 05:28:31;;;;;;;16.80;9.53;;;12.70;99.90;;;;;;4374379;28;657516;-73
2021/09/02 05:31:18;;;;;;;20.73;9.77;;;12.70;99.90;;;;;;4352844;28;656619;-73
2021/09/02 05:34:06;;;;;;;15.80;9.83;;;12.80;99.90;;;;;;4383856;28;657127;-73
2021/09/02 05:36:55;;;;;;;18.77;11.57;;;12.90;99.90;;;;;;4371664;28;656318;-73
2021/09/02 05:39:43;;;;;;;20.50;11.30;;;12.90;99.90;;;;;;4361136;28;658015;-73
2021/09/02 05:42:30;;;;;;;18.07;11.33;;;12.90;99.90;;;;;;4388687;28;658582;-73
2021/09/02 05:45:18;;;;;;;20.57;12.20;;;12.90;99.90;;;;;;4356626;28;658343;-73
2021/09/02 05:48:06;;;;;;;23.63;11.85;;;13.00;99.90;;;;;;4383782;28;658659;-73
2021/09/02 05:50:54;;;;;;;23.33;13.17;;;12.90;99.90;;;;;;4365088;28;657903;-73
2021/09/02 05:53:43;;;;;;;28.90;15.60;;;12.90;99.90;;;;;;4379145;28;657851;-74
2021/09/02 05:56:30;;;;;;;30.80;15.20;;;13.00;99.90;;;;;;4356344;28;658552;-73
2021/09/02 05:59:17;;;;;;;26.13;15.90;;;13.00;99.90;;;;;;4359368;28;657487;-73
2021/09/02 06:02:05;;;;;;;25.08;15.50;;;13.10;99.90;;;;;;4374745;28;658525;-73
2021/09/02 06:04:53;;;;;;;27.93;16.37;;;13.00;99.90;;;;;;4354340;28;657775;-73
2021/09/02 06:07:40;;;;;;;26.23;14.80;;;13.20;99.90;;;;;;4377560;28;658281;-73
2021/09/02 06:10:31;;;;;;;27.50;14.13;;;13.30;99.90;;;;;;4358686;28;658304;-72
2021/09/02 06:13:18;;;;;;;22.50;13.13;;;13.40;99.90;;;;;;4359053;28;657494;-73
2021/09/02 06:16:06;;;;;;;25.53;12.67;;;13.50;99.90;;;;;;4385400;28;657481;-73
2021/09/02 06:18:54;;;;;;;19.63;12.67;;;13.50;99.90;;;;;;4359505;28;657563;-73
2021/09/02 06:21:41;;;;;;;21.93;12.80;;;13.60;99.90;;;;;;4360940;28;657560;-73
2021/09/02 06:24:29;;;;;;;20.57;12.07;;;13.80;99.90;;;;;;4371694;28;658120;-73
2021/09/02 06:27:18;;;;;;;23.30;11.67;;;13.80;99.90;;;;;;4384844;28;657832;-72
2021/09/02 06:30:06;;;;;;;17.93;10.00;;;14.00;99.90;;;;;;4351062;28;658527;-72
2021/09/02 06:32:54;;;;;;;17.90;10.47;;;14.10;99.90;;;;;;4362924;28;659039;-73
2021/09/02 06:35:41;;;;;;;17.30;10.13;;;14.10;99.90;;;;;;4371022;28;658292;-73
2021/09/02 06:38:29;;;;;;;19.77;10.37;;;14.10;99.90;;;;;;4358599;28;658392;-72
2021/09/02 06:41:16;;;;;;;15.33;8.80;;;14.30;99.90;;;;;;4374792;28;657882;-72
2021/09/02 06:44:06;;;;;;;16.33;10.17;;;14.50;99.90;;;;;;4372592;28;657647;-73
2021/09/02 06:46:53;;;;;;;12.60;7.63;;;14.70;99.90;;;;;;4344364;28;657497;-72
2021/09/02 06:49:41;;;;;;;13.80;7.73;;;14.80;99.90;;;;;;4379588;28;657194;-72
2021/09/02 06:52:28;;;;;;;12.37;6.93;;;14.70;99.90;;;;;;4363917;28;656611;-73
2021/09/02 06:55:16;;;;;;;12.17;7.60;;;14.70;99.90;;;;;;4385197;28;656874;-72
2021/09/02 06:58:03;;;;;;;13.30;6.90;;;14.90;99.90;;;;;;4350772;28;656428;-72
2021/09/02 07:00:53;;;;;;;13.23;7.90;;;15.20;99.90;;;;;;4381989;28;656855;-73
2021/09/02 07:03:40;;;;;;;10.97;7.00;;;15.30;99.90;;;;;;4353574;28;656656;-72
2021/09/02 07:06:28;;;;;;;11.90;6.87;;;15.50;99.50;;;;;;4355414;28;656623;-72
2021/09/02 07:09:16;;;;;;;13.63;6.63;;;15.60;81.20;;;;;;4378944;28;657161;-72
2021/09/02 07:12:04;;;;;;;10.10;6.70;;;15.60;93.70;;;;;;4359589;28;656827;-72
2021/09/02 07:14:51;;;;;;;11.03;6.50;;;15.60;61.70;;;;;;4381492;28;656490;-72
2021/09/02 07:17:40;;;;;;;11.43;7.23;;;15.80;71.00;;;;;;4354179;28;656563;-72
2021/09/02 07:20:28;;;;;;;15.77;8.97;;;16.00;28.90;;;;;;4352115;28;657318;-72
2021/09/02 07:23:15;;;;;;;15.27;8.27;;;15.90;16.90;;;;;;4383583;28;658266;-72
2021/09/02 07:26:03;;;;;;;15.40;8.57;;;15.60;35.40;;;;;;4366968;28;656677;-73
2021/09/02 07:28:51;;;;;;;15.87;9.63;;;15.50;58.60;;;;;;4378571;28;657675;-73
2021/09/02 07:31:39;;;;;;;15.00;8.93;;;15.50;77.60;;;;;;4367078;28;656326;-72
2021/09/02 07:34:28;;;;;;;16.00;9.60;;;15.30;91.10;;;;;;4385171;28;656561;-72
2021/09/02 07:37:15;;;;;;;16.90;8.57;;;15.30;59.20;;;;;;4363856;28;657255;-72
2021/09/02 07:40:03;;;;;;;16.07;9.50;;;15.30;39.20;;;;;;4364970;28;656894;-72
2021/09/02 07:42:51;;;;;;;16.77;9.17;;;15.30;42.90;;;;;;4385742;28;656188;-72
2021/09/02 07:45:39;;;;;;;19.23;9.30;;;15.50;37.40;;;;;;4372179;28;656635;-73
2021/09/02 07:48:26;;;;;;;20.30;9.87;;;15.70;4.30;;;;;;4378909;28;657023;-72
2021/09/02 07:51:16;;;;;;;19.57;9.63;;;15.70;9.80;;;;;;4356793;28;655819;-72
2021/09/02 07:54:03;;;;;;;24.30;10.23;;;15.70;1.00;;;;;;4353771;28;656104;-72
2021/09/02 07:56:51;;;;;;;20.00;9.27;;;16.00;5.60;;;;;;4376153;28;658067;-72
2021/09/02 07:59:40;;;;;;;24.37;9.70;;;16.20;1.00;;;;;;4359188;28;657121;-72
2021/09/02 08:02:28;;;;;;;16.93;8.60;;;16.00;1.00;;;;;;4363217;28;656476;-72
2021/09/02 08:05:15;;;;;;;20.43;8.83;;;16.30;1.00;;;;;;4376200;28;657295;-72
2021/09/02 08:08:05;;;;;;;16.93;7.70;;;16.60;1.00;;;;;;4365548;28;656746;-72
2021/09/02 08:10:53;;;;;;;13.97;8.03;;;16.70;1.00;;;;;;4361399;28;657603;-72
2021/09/02 08:13:40;;;;;;;12.07;6.83;;;16.90;1.00;;;;;;4368465;28;656883;-72
2021/09/02 08:16:28;;;;;;;12.83;6.73;;;17.20;1.00;;;;;;4361119;28;656402;-73
2021/09/02 08:19:15;;;;;;;11.67;6.07;;;16.80;99.90;;;;;;4385798;28;657534;-72
2021/09/02 08:22:03;;;;;;;9.20;5.33;;;16.90;99.90;;;;;;4362689;28;657679;-72
2021/09/02 08:24:52;;;;;;;8.23;5.23;;;17.30;99.90;;;;;;4377440;28;657357;-72
2021/09/02 08:27:40;;;;;;;13.30;6.10;;;17.60;99.90;;;;;;4359850;28;657307;-72
2021/09/02 08:30:28;;;;;;;7.10;4.83;;;17.50;99.90;;;;;;4357378;28;657479;-72
2021/09/02 08:33:16;;;;;;;12.13;4.80;;;17.50;1.00;;;;;;4372588;28;657168;-72
2021/09/02 08:36:04;;;;;;;10.83;4.60;;;17.70;63.50;;;;;;4356488;28;656967;-72
2021/09/02 08:38:52;;;;;;;13.90;4.80;;;18.10;1.00;;;;;;4376436;28;657504;-72
2021/09/02 08:41:41;;;;;;;9.97;5.17;;;18.10;1.00;;;;;;4363534;28;657604;-71
2021/09/02 08:44:28;;;;;;;8.30;4.53;;;17.90;99.90;;;;;;4363780;28;655921;-72
2021/09/02 08:47:16;;;;;;;11.67;4.30;;;18.10;99.90;;;;;;4368317;28;657027;-72
2021/09/02 08:50:04;;;;;;;10.53;4.47;;;18.20;99.90;;;;;;4369074;28;657668;-71
2021/09/02 08:52:52;;;;;;;14.07;5.00;;;18.10;3.50;;;;;;4375335;28;657419;-72
2021/09/02 08:55:40;;;;;;;9.90;5.40;;;18.50;23.10;;;;;;4375729;28;657444;-71
2021/09/02 08:58:32;;;;;;;9.73;4.50;;;18.50;1.00;;;;;;4355061;28;656400;-72
2021/09/02 09:01:19;;;;;;;10.87;4.37;;;19.00;1.00;;;;;;4365147;28;657158;-72
2021/09/02 09:04:11;;;;;;;10.37;4.00;;;18.90;99.90;;;;;;4380027;28;656520;-71
2021/09/02 09:06:59;;;;;;;9.73;4.27;;;18.30;1.00;;;;;;4369704;28;658101;-71
2021/09/02 09:09:52;;;;;;;12.00;3.93;;;18.10;99.90;;;;;;4398003;28;656030;-71
2021/09/02 09:12:41;;;;;;;7.40;3.90;;;18.50;99.90;;;;;;4356943;28;658978;-72
2021/09/02 09:15:31;;;;;;;7.87;4.03;;;18.60;1.00;;;;;;4371630;28;656834;-71
2021/09/02 09:18:20;;;;;;;7.63;4.17;;;18.10;1.00;;;;;;4375493;28;656043;-71
2021/09/02 09:21:08;;;;;;;8.00;4.00;;;18.00;1.00;;;;;;4365427;28;656569;-72
2021/09/02 09:23:58;;;;;;;8.73;3.97;;;18.20;1.00;;;;;;4377630;28;655897;-71
2021/09/02 09:26:46;;;;;;;6.53;3.97;;;18.40;1.00;;;;;;4355182;28;656653;-71
2021/09/02 09:29:33;;;;;;;7.33;4.23;;;18.70;1.00;;;;;;4376920;28;656233;-71
2021/09/02 09:32:22;;;;;;;7.83;3.60;;;18.80;1.00;;;;;;4397278;28;656113;-71
2021/09/02 09:35:11;;;;;;;7.97;3.80;;;18.90;99.90;;;;;;4371061;28;657155;-71
2021/09/02 09:38:06;;;;;;;7.80;3.63;;;19.00;1.00;;;;;;4361733;28;657196;-71
2021/09/02 09:40:54;;;;;;;7.33;3.93;;;18.80;1.00;;;;;;4348808;28;655829;-71
2021/09/02 09:43:41;;;;;;;5.83;3.30;;;18.80;1.00;;;;;;4389108;28;655994;-71
2021/09/02 09:46:30;;;;;;;6.70;3.70;;;18.80;1.00;;;;;;4362573;28;656685;-71
2021/09/02 09:49:19;;;;;;;6.87;3.60;;;18.80;1.00;;;;;;4366697;28;655652;-71
2021/09/02 09:52:18;;;;;;;7.67;3.70;;;18.70;1.00;;;;;;4380349;28;656462;-71
2021/09/02 09:55:07;;;;;;;5.70;3.83;;;18.90;1.00;;;;;;4355521;28;656447;-71
2021/09/02 09:57:55;;;;;;;6.87;3.50;;;19.50;1.00;;;;;;4350832;28;656551;-71
2021/09/02 10:00:42;;;;;;;9.93;3.67;;;19.80;1.00;;;;;;4366020;28;655556;-71
2021/09/02 10:03:30;;;;;;;8.43;3.40;;;19.40;99.90;;;;;;4392256;28;656991;-71
2021/09/02 10:06:20;;;;;;;8.13;4.10;;;19.50;1.00;;;;;;4390780;28;657047;-72
2021/09/02 10:09:08;;;;;;;8.00;3.60;;;20.00;99.90;;;;;;4426200;28;655354;-71
2021/09/02 10:11:55;;;;;;;9.60;4.10;;;19.80;99.90;;;;;;4388525;28;657125;-74
2021/09/02 10:14:43;;;;;;;8.10;4.10;;;19.40;1.00;;;;;;4398282;28;656999;-72
2021/09/02 10:17:32;;;;;;;6.80;3.78;;;18.80;99.90;;;;;;4385412;28;657267;-71
2021/09/02 10:20:21;;;;;;;7.30;3.83;;;18.90;99.90;;;;;;4376710;28;657224;-73
2021/09/02 10:23:12;;;;;;;7.83;3.93;;;18.70;99.90;;;;;;4355622;28;658114;-71
2021/09/02 10:26:00;;;;;;;8.80;4.10;;;18.80;99.90;;;;;;4353155;28;658490;-68
2021/09/02 10:28:47;;;;;;;8.85;3.80;;;18.50;99.90;;;;;;4364253;28;656492;-68
2021/09/02 10:31:35;;;;;;;6.73;3.93;;;18.70;1.00;;;;;;4382825;28;658002;-68
2021/09/02 10:34:29;;;;;;;5.97;3.37;;;19.20;1.00;;;;;;4354403;28;655343;-68
2021/09/02 10:37:49;;;;;;;6.40;3.40;;;19.90;99.90;;;;;;4357744;28;655500;-68
2021/09/02 10:40:51;;;;;;;5.47;3.50;;;19.40;99.90;;;;;;4343768;28;657059;-68
2021/09/02 10:43:46;;;;;;;7.53;3.87;;;19.30;1.00;;;;;;4335977;28;657770;-68
2021/09/02 10:46:37;;;;;;;6.77;3.73;;;19.20;1.00;;;;;;4334566;28;656087;-68
2021/09/02 10:49:31;;;;;;;6.23;3.60;;;19.00;1.00;;;;;;4355850;28;657285;-68
2021/09/02 10:52:27;;;;;;;6.40;3.70;;;19.20;99.90;;;;;;4357084;28;655509;-68
2021/09/02 10:55:28;;;;;;;7.00;3.50;;;19.00;99.90;;;;;;4330932;28;657135;-68
2021/09/02 10:58:46;;;;;;;9.13;3.63;;;18.90;99.90;;;;;;4351584;28;656748;-68
2021/09/02 11:01:34;;;;;;;7.43;3.30;;;18.80;99.90;;;;;;4355699;28;656493;-68
2021/09/02 11:04:22;;;;;;;6.27;3.60;;;18.80;99.90;;;;;;4371750;28;656747;-68
2021/09/02 11:07:10;;;;;;;6.23;3.47;;;19.10;99.90;;;;;;4377967;28;658108;-68
2021/09/02 11:10:07;;;;;;;4.40;2.77;;;19.80;99.90;;;;;;4358645;28;656341;-68
2021/09/02 11:13:01;;;;;;;4.13;3.10;;;20.00;1.00;;;;;;4333253;28;657893;-68
2021/09/02 11:15:50;;;;;;;5.23;2.90;;;20.20;1.00;;;;;;4354199;28;655875;-68
2021/09/02 11:18:42;;;;;;;6.50;3.10;;;20.10;99.90;;;;;;4397670;28;655606;-68
2021/09/02 11:21:29;;;;;;;5.53;3.07;;;20.40;1.00;;;;;;4428128;28;657889;-68
2021/09/02 11:24:17;;;;;;;4.13;2.80;;;20.20;99.90;;;;;;4435824;28;655667;-68
2021/09/02 11:27:05;;;;;;;8.00;2.67;;;20.50;99.90;;;;;;4411381;28;658138;-68
2021/09/02 11:29:53;;;;;;;8.23;2.60;;;20.60;1.00;;;;;;4400790;28;656455;-68
2021/09/02 11:32:42;;;;;;;5.57;2.73;;;20.80;99.90;;;;;;4401860;28;656422;-68
2021/09/02 11:35:30;;;;;;;3.60;2.47;;;21.10;99.90;;;;;;4410151;28;657466;-68
2021/09/02 11:38:18;;;;;;;6.30;3.10;;;21.10;1.00;;;;;;4415844;28;656330;-68
2021/09/02 11:41:09;;;;;;;7.17;2.60;;;20.50;27.20;;;;;;4401305;28;656280;-68
2021/09/02 11:43:57;;;;;;;5.80;3.03;;;20.30;99.90;;;;;;4408718;28;656792;-68
2021/09/02 11:46:44;;;;;;;5.37;2.20;;;20.30;99.90;;;;;;4408131;28;658264;-68
2021/09/02 11:49:34;;;;;;;3.77;2.23;;;20.20;99.90;;;;;;4422867;28;656932;-68
2021/09/02 11:52:21;;;;;;;3.70;2.20;;;19.90;1.00;;;;;;4437936;28;656816;-68
2021/09/02 11:55:13;;;;;;;4.93;2.40;;;19.80;1.00;;;;;;4405861;28;655813;-68
2021/09/02 11:58:01;;;;;;;4.03;2.60;;;20.00;99.90;;;;;;4384483;28;656687;-68
2021/09/02 12:00:49;;;;;;;3.90;2.23;;;20.50;99.90;;;;;;4408493;28;656716;-68
2021/09/02 12:03:37;;;;;;;3.33;2.27;;;21.00;99.90;;;;;;4381149;28;656896;-68
2021/09/02 12:06:26;;;;;;;6.70;2.27;;;20.30;1.00;;;;;;4355267;28;658249;-68
2021/09/02 12:09:14;;;;;;;3.97;2.10;;;19.60;1.00;;;;;;4359456;28;655358;-68
2021/09/02 12:12:02;;;;;;;5.95;2.65;;;19.50;1.00;;;;;;4377669;28;655304;-68
2021/09/02 12:14:49;;;;;;;5.87;2.40;;;20.00;1.00;;;;;;4373635;28;656356;-68
2021/09/02 12:17:37;;;;;;;4.67;2.40;;;20.30;99.90;;;;;;4381663;28;655269;-68
2021/09/02 12:20:25;;;;;;;5.03;2.50;;;21.00;96.90;;;;;;4365090;28;656554;-68
2021/09/02 12:23:23;;;;;;;3.37;2.27;;;21.80;99.90;;;;;;4357923;28;657119;-68
2021/09/02 12:26:11;;;;;;;5.13;2.20;;;22.70;99.90;;;;;;4352702;28;656805;-68
2021/09/02 12:28:59;;;;;;;4.43;2.40;;;22.80;99.90;;;;;;4394237;28;656577;-67
2021/09/02 12:31:47;;;;;;;4.87;2.30;;;22.30;1.00;;;;;;4387993;28;656606;-67
2021/09/02 12:34:34;;;;;;;4.87;2.37;;;22.10;1.00;;;;;;4375505;28;657973;-67
2021/09/02 12:37:24;;;;;;;4.90;2.63;;;22.40;1.00;;;;;;4375566;28;655479;-67
2021/09/02 12:40:17;;;;;;;3.90;2.57;;;21.90;1.00;;;;;;4394207;28;656043;-67
2021/09/02 12:43:15;;;;;;;4.33;2.33;;;21.30;1.00;;;;;;4337258;28;656091;-68
2021/09/02 12:46:02;;;;;;;3.57;2.40;;;20.80;1.00;;;;;;4356455;28;655759;-67
2021/09/02 12:48:50;;;;;;;4.03;2.70;;;20.20;1.00;;;;;;4391264;28;657311;-67
2021/09/02 12:51:37;;;;;;;6.20;2.50;;;19.70;1.00;;;;;;4365036;28;655449;-67
2021/09/02 12:54:25;;;;;;;6.03;2.63;;;19.40;1.00;;;;;;4399010;28;656510;-67
2021/09/02 12:57:14;;;;;;;4.77;2.50;;;19.40;99.90;;;;;;4369208;28;655925;-67
2021/09/02 13:00:02;;;;;;;3.77;2.57;;;19.20;93.50;;;;;;4413093;28;656113;-67
2021/09/02 13:02:52;;;;;;;6.13;2.77;;;19.60;99.90;;;;;;4370492;28;658048;-68
2021/09/02 13:05:39;;;;;;;7.80;2.70;;;20.50;99.90;;;;;;4373487;28;657966;-68
2021/09/02 13:08:27;;;;;;;7.37;2.67;;;20.50;94.70;;;;;;4381681;28;656883;-68
2021/09/02 13:11:15;;;;;;;6.53;3.10;;;20.00;77.00;;;;;;4392981;28;658085;-67
2021/09/02 13:14:05;;;;;;;4.77;2.93;;;20.00;10.70;;;;;;4351102;28;656929;-67
2021/09/02 13:16:52;;;;;;;7.03;3.03;;;19.50;66.10;;;;;;4373128;28;656622;-67
2021/09/02 13:19:40;;;;;;;5.80;3.13;;;19.50;99.90;;;;;;4379894;28;657776;-67
2021/09/02 13:22:27;;;;;;;5.77;3.10;;;19.40;99.90;;;;;;4373499;28;656569;-67
2021/09/02 13:25:16;;;;;;;4.77;3.00;;;19.10;99.90;;;;;;4391860;28;657792;-67
2021/09/02 13:28:04;;;;;;;4.67;2.73;;;19.00;99.90;;;;;;4391862;28;656527;-68
2021/09/02 13:30:53;;;;;;;5.83;2.77;;;18.70;99.90;;;;;;4379363;28;657065;-67
2021/09/02 13:33:40;;;;;;;4.70;3.03;;;18.60;1.00;;;;;;4358465;28;657363;-67
2021/09/02 13:36:28;;;;;;;7.30;3.13;;;18.60;99.90;;;;;;4371593;28;655763;-67
2021/09/02 13:39:15;;;;;;;7.45;3.20;;;18.60;1.00;;;;;;4384607;28;657788;-67
2021/09/02 13:42:03;;;;;;;4.40;2.93;;;18.50;99.90;;;;;;4360318;28;655604;-67
2021/09/02 13:44:51;;;;;;;5.43;2.80;;;18.70;99.90;;;;;;4387736;28;657163;-67
2021/09/02 13:47:40;;;;;;;4.83;2.80;;;18.60;28.10;;;;;;4354150;28;656540;-67
2021/09/02 13:50:28;;;;;;;4.47;2.97;;;18.60;99.90;;;;;;4356499;28;656717;-67
2021/09/02 13:53:15;;;;;;;8.50;2.93;;;18.40;97.50;;;;;;4393208;28;656745;-67
2021/09/02 13:56:03;;;;;;;6.27;3.10;;;18.40;99.90;;;;;;4350334;28;656764;-67
2021/09/02 13:58:50;;;;;;;7.33;3.23;;;18.30;1.00;;;;;;4379795;28;657476;-67
2021/09/02 14:01:38;;;;;;;5.90;3.33;;;18.10;1.00;;;;;;4367754;28;656213;-67
2021/09/02 14:04:27;;;;;;;6.47;3.40;;;18.00;1.00;;;;;;4394855;28;656003;-67
2021/09/02 14:07:15;;;;;;;6.37;3.50;;;17.90;1.00;;;;;;4372585;28;656405;-67
2021/09/02 14:10:02;;;;;;;5.70;3.50;;;17.80;1.00;;;;;;4367659;28;655902;-67
2021/09/02 14:12:50;;;;;;;6.67;3.70;;;17.70;1.00;;;;;;4384446;28;656195;-67
2021/09/02 14:15:37;;;;;;;5.00;3.10;;;17.70;1.00;;;;;;4359933;28;655943;-67
2021/09/02 14:18:25;;;;;;;5.80;3.10;;;17.60;55.70;;;;;;4399540;28;656566;-67